sensor_id;sensor_type;location;lat;lon;timestamp;P1;durP1;ratioP1;P2;durP2;ratioP2
14530;SDS011;7352;50.866;4.366;2023-04-03T00:01:18;0.27;;;0.27;;
14530;SDS011;7352;50.866;4.366;2023-04-03T00:03:46;0.20;;;0.20;;
14530;SDS011;7352;50.866;4.366;2023-04-03T00:06:14;0.20;;;0.20;;
14530;SDS011;7352;50.866;4.366;2023-04-03T00:08:41;0.20;;;0.20;;
14530;SDS011;7352;50.866;4.366;2023-04-03T00:11:08;0.20;;;0.20;;
14530;SDS011;7352;50.866;4.366;2023-04-03T00:13:37;0.20;;;0.20;;
14530;SDS011;7352;50.866;4.366;2023-04-03T00:16:14;0.20;;;0.20;;
14530;SDS011;7352;50.866;4.366;2023-04-03T00:18:42;0.20;;;0.20;;
14530;SDS011;7352;50.866;4.366;2023-04-03T00:21:10;0.20;;;0.20;;
14530;SDS011;7352;50.866;4.366;2023-04-03T00:23:41;0.20;;;0.20;;
14530;SDS011;7352;50.866;4.366;2023-04-03T00:26:08;0.20;;;0.20;;
14530;SDS011;7352;50.866;4.366;2023-04-03T00:28:45;0.20;;;0.20;;
14530;SDS011;7352;50.866;4.366;2023-04-03T00:31:13;0.20;;;0.20;;
14530;SDS011;7352;50.866;4.366;2023-04-03T00:33:41;0.20;;;0.20;;
14530;SDS011;7352;50.866;4.366;2023-04-03T00:36:08;0.20;;;0.20;;
14530;SDS011;7352;50.866;4.366;2023-04-03T00:38:36;0.20;;;0.20;;
14530;SDS011;7352;50.866;4.366;2023-04-03T00:41:04;0.20;;;0.20;;
14530;SDS011;7352;50.866;4.366;2023-04-03T00:43:32;0.20;;;0.20;;
14530;SDS011;7352;50.866;4.366;2023-04-03T00:46:03;0.10;;;0.10;;
14530;SDS011;7352;50.866;4.366;2023-04-03T00:48:41;0.20;;;0.20;;
14530;SDS011;7352;50.866;4.366;2023-04-03T00:51:13;0.20;;;0.20;;
14530;SDS011;7352;50.866;4.366;2023-04-03T00:53:56;0.20;;;0.20;;
14530;SDS011;7352;50.866;4.366;2023-04-03T01:02:49;0.20;;;0.20;;
14530;SDS011;7352;50.866;4.366;2023-04-03T01:05:20;0.20;;;0.20;;
14530;SDS011;7352;50.866;4.366;2023-04-03T01:08:02;0.20;;;0.20;;
14530;SDS011;7352;50.866;4.366;2023-04-03T01:10:34;0.20;;;0.20;;
14530;SDS011;7352;50.866;4.366;2023-04-03T01:13:01;0.20;;;0.20;;
14530;SDS011;7352;50.866;4.366;2023-04-03T01:15:46;0.20;;;0.20;;
14530;SDS011;7352;50.866;4.366;2023-04-03T01:18:15;0.20;;;0.20;;
14530;SDS011;7352;50.866;4.366;2023-04-03T01:21:02;0.20;;;0.20;;
14530;SDS011;7352;50.866;4.366;2023-04-03T01:23:54;0.20;;;0.20;;
14530;SDS011;7352;50.866;4.366;2023-04-03T01:26:33;0.20;;;0.20;;
14530;SDS011;7352;50.866;4.366;2023-04-03T01:29:01;0.20;;;0.20;;
14530;SDS011;7352;50.866;4.366;2023-04-03T01:31:31;0.20;;;0.20;;
14530;SDS011;7352;50.866;4.366;2023-04-03T01:34:06;0.20;;;0.20;;
14530;SDS011;7352;50.866;4.366;2023-04-03T01:36:35;0.20;;;0.20;;
14530;SDS011;7352;50.866;4.366;2023-04-03T01:39:17;0.20;;;0.20;;
14530;SDS011;7352;50.866;4.366;2023-04-03T01:41:44;0.20;;;0.20;;
14530;SDS011;7352;50.866;4.366;2023-04-03T01:44:11;0.20;;;0.20;;
14530;SDS011;7352;50.866;4.366;2023-04-03T01:46:40;0.20;;;0.20;;
14530;SDS011;7352;50.866;4.366;2023-04-03T01:49:09;0.20;;;0.20;;
14530;SDS011;7352;50.866;4.366;2023-04-03T01:51:36;0.20;;;0.20;;
14530;SDS011;7352;50.866;4.366;2023-04-03T01:54:03;0.30;;;0.30;;
14530;SDS011;7352;50.866;4.366;2023-04-03T01:56:30;0.20;;;0.20;;
14530;SDS011;7352;50.866;4.366;2023-04-03T01:58:57;0.20;;;0.20;;
14530;SDS011;7352;50.866;4.366;2023-04-03T02:01:24;0.20;;;0.20;;
14530;SDS011;7352;50.866;4.366;2023-04-03T02:03:53;0.20;;;0.20;;
14530;SDS011;7352;50.866;4.366;2023-04-03T02:08:55;0.20;;;0.20;;
14530;SDS011;7352;50.866;4.366;2023-04-03T02:11:22;0.20;;;0.20;;
14530;SDS011;7352;50.866;4.366;2023-04-03T02:13:49;0.20;;;0.20;;
14530;SDS011;7352;50.866;4.366;2023-04-03T02:16:16;0.20;;;0.20;;
14530;SDS011;7352;50.866;4.366;2023-04-03T02:18:43;0.20;;;0.20;;
14530;SDS011;7352;50.866;4.366;2023-04-03T02:21:26;0.20;;;0.20;;
14530;SDS011;7352;50.866;4.366;2023-04-03T02:23:53;0.20;;;0.20;;
14530;SDS011;7352;50.866;4.366;2023-04-03T02:26:20;0.20;;;0.20;;
14530;SDS011;7352;50.866;4.366;2023-04-03T02:28:48;0.23;;;0.23;;
14530;SDS011;7352;50.866;4.366;2023-04-03T02:31:15;0.20;;;0.20;;
14530;SDS011;7352;50.866;4.366;2023-04-03T02:33:42;0.30;;;0.30;;
14530;SDS011;7352;50.866;4.366;2023-04-03T02:36:09;0.20;;;0.20;;
14530;SDS011;7352;50.866;4.366;2023-04-03T02:38:37;0.30;;;0.30;;
14530;SDS011;7352;50.866;4.366;2023-04-03T02:41:07;0.20;;;0.20;;
14530;SDS011;7352;50.866;4.366;2023-04-03T02:43:38;0.20;;;0.20;;
14530;SDS011;7352;50.866;4.366;2023-04-03T02:46:05;0.30;;;0.30;;
14530;SDS011;7352;50.866;4.366;2023-04-03T02:48:33;0.20;;;0.20;;
14530;SDS011;7352;50.866;4.366;2023-04-03T02:51:00;0.20;;;0.20;;
14530;SDS011;7352;50.866;4.366;2023-04-03T02:53:27;0.20;;;0.20;;
14530;SDS011;7352;50.866;4.366;2023-04-03T02:55:56;0.20;;;0.20;;
14530;SDS011;7352;50.866;4.366;2023-04-03T02:58:23;0.20;;;0.20;;
14530;SDS011;7352;50.866;4.366;2023-04-03T03:00:50;0.20;;;0.20;;
14530;SDS011;7352;50.866;4.366;2023-04-03T03:03:17;0.20;;;0.20;;
14530;SDS011;7352;50.866;4.366;2023-04-03T03:05:44;0.20;;;0.20;;
14530;SDS011;7352;50.866;4.366;2023-04-03T03:08:13;0.20;;;0.20;;
14530;SDS011;7352;50.866;4.366;2023-04-03T03:10:40;0.30;;;0.30;;
14530;SDS011;7352;50.866;4.366;2023-04-03T03:13:08;0.30;;;0.30;;
14530;SDS011;7352;50.866;4.366;2023-04-03T03:18:09;0.20;;;0.20;;
14530;SDS011;7352;50.866;4.366;2023-04-03T03:20:37;0.20;;;0.20;;
14530;SDS011;7352;50.866;4.366;2023-04-03T03:23:20;0.20;;;0.20;;
14530;SDS011;7352;50.866;4.366;2023-04-03T03:25:53;0.20;;;0.20;;
14530;SDS011;7352;50.866;4.366;2023-04-03T03:28:31;0.30;;;0.30;;
14530;SDS011;7352;50.866;4.366;2023-04-03T03:30:58;0.20;;;0.20;;
14530;SDS011;7352;50.866;4.366;2023-04-03T03:33:27;0.30;;;0.30;;
14530;SDS011;7352;50.866;4.366;2023-04-03T03:35:55;0.20;;;0.20;;
14530;SDS011;7352;50.866;4.366;2023-04-03T03:38:23;0.20;;;0.20;;
14530;SDS011;7352;50.866;4.366;2023-04-03T03:40:54;0.20;;;0.20;;
14530;SDS011;7352;50.866;4.366;2023-04-03T03:43:22;0.20;;;0.20;;
14530;SDS011;7352;50.866;4.366;2023-04-03T03:45:51;0.30;;;0.30;;
14530;SDS011;7352;50.866;4.366;2023-04-03T03:48:19;0.30;;;0.30;;
14530;SDS011;7352;50.866;4.366;2023-04-03T03:53:17;0.20;;;0.20;;
14530;SDS011;7352;50.866;4.366;2023-04-03T03:55:44;0.30;;;0.30;;
14530;SDS011;7352;50.866;4.366;2023-04-03T03:58:12;0.30;;;0.30;;
14530;SDS011;7352;50.866;4.366;2023-04-03T04:00:39;0.20;;;0.20;;
14530;SDS011;7352;50.866;4.366;2023-04-03T04:03:07;0.30;;;0.30;;
14530;SDS011;7352;50.866;4.366;2023-04-03T04:05:35;0.30;;;0.30;;
14530;SDS011;7352;50.866;4.366;2023-04-03T04:08:07;0.20;;;0.20;;
14530;SDS011;7352;50.866;4.366;2023-04-03T04:10:35;0.20;;;0.20;;
14530;SDS011;7352;50.866;4.366;2023-04-03T04:13:03;0.20;;;0.20;;
14530;SDS011;7352;50.866;4.366;2023-04-03T04:15:30;0.30;;;0.30;;
14530;SDS011;7352;50.866;4.366;2023-04-03T04:17:57;0.20;;;0.20;;
14530;SDS011;7352;50.866;4.366;2023-04-03T04:20:41;0.20;;;0.20;;
14530;SDS011;7352;50.866;4.366;2023-04-03T04:23:08;0.30;;;0.30;;
14530;SDS011;7352;50.866;4.366;2023-04-03T04:25:35;0.30;;;0.30;;
14530;SDS011;7352;50.866;4.366;2023-04-03T04:28:02;0.20;;;0.20;;
14530;SDS011;7352;50.866;4.366;2023-04-03T04:30:29;0.20;;;0.20;;
14530;SDS011;7352;50.866;4.366;2023-04-03T04:32:59;0.20;;;0.20;;
14530;SDS011;7352;50.866;4.366;2023-04-03T04:35:43;0.20;;;0.20;;
14530;SDS011;7352;50.866;4.366;2023-04-03T04:38:10;0.20;;;0.20;;
14530;SDS011;7352;50.866;4.366;2023-04-03T04:40:37;0.30;;;0.30;;
14530;SDS011;7352;50.866;4.366;2023-04-03T04:43:04;0.20;;;0.20;;
14530;SDS011;7352;50.866;4.366;2023-04-03T04:45:35;0.20;;;0.20;;
14530;SDS011;7352;50.866;4.366;2023-04-03T04:48:08;0.20;;;0.20;;
14530;SDS011;7352;50.866;4.366;2023-04-03T04:50:37;0.20;;;0.20;;
14530;SDS011;7352;50.866;4.366;2023-04-03T04:53:29;0.30;;;0.30;;
14530;SDS011;7352;50.866;4.366;2023-04-03T04:55:56;0.30;;;0.30;;
14530;SDS011;7352;50.866;4.366;2023-04-03T04:58:24;0.20;;;0.20;;
14530;SDS011;7352;50.866;4.366;2023-04-03T05:00:57;0.30;;;0.30;;
14530;SDS011;7352;50.866;4.366;2023-04-03T05:03:25;0.20;;;0.20;;
14530;SDS011;7352;50.866;4.366;2023-04-03T05:05:51;0.20;;;0.20;;
14530;SDS011;7352;50.866;4.366;2023-04-03T05:08:20;0.27;;;0.27;;
14530;SDS011;7352;50.866;4.366;2023-04-03T05:10:47;0.20;;;0.20;;
14530;SDS011;7352;50.866;4.366;2023-04-03T05:13:14;0.20;;;0.20;;
14530;SDS011;7352;50.866;4.366;2023-04-03T05:15:41;0.20;;;0.20;;
14530;SDS011;7352;50.866;4.366;2023-04-03T05:18:08;0.30;;;0.30;;
14530;SDS011;7352;50.866;4.366;2023-04-03T05:20:43;0.20;;;0.20;;
14530;SDS011;7352;50.866;4.366;2023-04-03T05:23:30;0.30;;;0.30;;
14530;SDS011;7352;50.866;4.366;2023-04-03T05:25:57;0.20;;;0.20;;
14530;SDS011;7352;50.866;4.366;2023-04-03T05:28:24;0.30;;;0.30;;
14530;SDS011;7352;50.866;4.366;2023-04-03T05:30:54;0.30;;;0.30;;
14530;SDS011;7352;50.866;4.366;2023-04-03T05:33:22;0.30;;;0.30;;
14530;SDS011;7352;50.866;4.366;2023-04-03T05:35:49;0.30;;;0.30;;
14530;SDS011;7352;50.866;4.366;2023-04-03T05:38:17;0.20;;;0.20;;
14530;SDS011;7352;50.866;4.366;2023-04-03T05:40:55;0.30;;;0.30;;
14530;SDS011;7352;50.866;4.366;2023-04-03T05:43:22;0.20;;;0.20;;
14530;SDS011;7352;50.866;4.366;2023-04-03T05:45:50;0.30;;;0.30;;
14530;SDS011;7352;50.866;4.366;2023-04-03T05:48:19;0.30;;;0.30;;
14530;SDS011;7352;50.866;4.366;2023-04-03T05:50:48;0.30;;;0.30;;
14530;SDS011;7352;50.866;4.366;2023-04-03T05:53:21;0.20;;;0.20;;
14530;SDS011;7352;50.866;4.366;2023-04-03T05:58:55;0.23;;;0.23;;
14530;SDS011;7352;50.866;4.366;2023-04-03T06:01:38;0.20;;;0.20;;
14530;SDS011;7352;50.866;4.366;2023-04-03T06:04:05;0.20;;;0.20;;
14530;SDS011;7352;50.866;4.366;2023-04-03T06:06:43;0.20;;;0.20;;
14530;SDS011;7352;50.866;4.366;2023-04-03T06:09:12;0.27;;;0.27;;
14530;SDS011;7352;50.866;4.366;2023-04-03T06:14:42;0.30;;;0.30;;
14530;SDS011;7352;50.866;4.366;2023-04-03T06:17:14;0.20;;;0.20;;
14530;SDS011;7352;50.866;4.366;2023-04-03T06:19:43;0.20;;;0.20;;
14530;SDS011;7352;50.866;4.366;2023-04-03T06:22:10;0.30;;;0.30;;
14530;SDS011;7352;50.866;4.366;2023-04-03T06:24:38;0.20;;;0.20;;
14530;SDS011;7352;50.866;4.366;2023-04-03T06:27:11;0.20;;;0.20;;
14530;SDS011;7352;50.866;4.366;2023-04-03T06:29:53;0.20;;;0.20;;
14530;SDS011;7352;50.866;4.366;2023-04-03T06:32:40;0.20;;;0.20;;
14530;SDS011;7352;50.866;4.366;2023-04-03T06:35:09;0.20;;;0.20;;
14530;SDS011;7352;50.866;4.366;2023-04-03T06:37:54;0.20;;;0.20;;
14530;SDS011;7352;50.866;4.366;2023-04-03T06:40:22;0.20;;;0.20;;
14530;SDS011;7352;50.866;4.366;2023-04-03T06:45:56;0.30;;;0.30;;
14530;SDS011;7352;50.866;4.366;2023-04-03T06:48:58;0.20;;;0.20;;
14530;SDS011;7352;50.866;4.366;2023-04-03T06:52:03;0.20;;;0.20;;
14530;SDS011;7352;50.866;4.366;2023-04-03T06:54:47;0.20;;;0.20;;
14530;SDS011;7352;50.866;4.366;2023-04-03T06:57:44;0.20;;;0.20;;
14530;SDS011;7352;50.866;4.366;2023-04-03T07:07:03;0.10;;;0.10;;
14530;SDS011;7352;50.866;4.366;2023-04-03T07:09:35;0.20;;;0.20;;
14530;SDS011;7352;50.866;4.366;2023-04-03T07:12:24;0.20;;;0.20;;
14530;SDS011;7352;50.866;4.366;2023-04-03T07:15:06;0.20;;;0.20;;
14530;SDS011;7352;50.866;4.366;2023-04-03T07:17:36;0.20;;;0.20;;
14530;SDS011;7352;50.866;4.366;2023-04-03T07:20:22;0.23;;;0.23;;
14530;SDS011;7352;50.866;4.366;2023-04-03T07:22:57;0.20;;;0.20;;
14530;SDS011;7352;50.866;4.366;2023-04-03T07:25:42;0.20;;;0.20;;
14530;SDS011;7352;50.866;4.366;2023-04-03T07:28:15;0.20;;;0.20;;
14530;SDS011;7352;50.866;4.366;2023-04-03T07:31:26;0.20;;;0.20;;
14530;SDS011;7352;50.866;4.366;2023-04-03T07:33:55;0.20;;;0.20;;
14530;SDS011;7352;50.866;4.366;2023-04-03T07:36:38;0.20;;;0.20;;
14530;SDS011;7352;50.866;4.366;2023-04-03T07:39:27;0.20;;;0.20;;
14530;SDS011;7352;50.866;4.366;2023-04-03T07:41:54;0.20;;;0.20;;
14530;SDS011;7352;50.866;4.366;2023-04-03T07:44:22;0.20;;;0.20;;
14530;SDS011;7352;50.866;4.366;2023-04-03T07:47:10;0.20;;;0.20;;
14530;SDS011;7352;50.866;4.366;2023-04-03T07:49:44;0.20;;;0.20;;
14530;SDS011;7352;50.866;4.366;2023-04-03T07:52:12;0.20;;;0.20;;
14530;SDS011;7352;50.866;4.366;2023-04-03T07:57:43;0.20;;;0.20;;
14530;SDS011;7352;50.866;4.366;2023-04-03T08:00:12;0.20;;;0.20;;
14530;SDS011;7352;50.866;4.366;2023-04-03T08:02:40;0.20;;;0.20;;
14530;SDS011;7352;50.866;4.366;2023-04-03T08:05:07;0.20;;;0.20;;
14530;SDS011;7352;50.866;4.366;2023-04-03T08:07:50;0.20;;;0.20;;
14530;SDS011;7352;50.866;4.366;2023-04-03T08:10:20;0.20;;;0.20;;
14530;SDS011;7352;50.866;4.366;2023-04-03T08:15:56;0.20;;;0.20;;
14530;SDS011;7352;50.866;4.366;2023-04-03T08:18:25;0.20;;;0.20;;
14530;SDS011;7352;50.866;4.366;2023-04-03T08:20:52;0.20;;;0.20;;
14530;SDS011;7352;50.866;4.366;2023-04-03T08:23:19;0.10;;;0.10;;
14530;SDS011;7352;50.866;4.366;2023-04-03T08:26:06;0.20;;;0.20;;
14530;SDS011;7352;50.866;4.366;2023-04-03T08:28:36;0.20;;;0.20;;
14530;SDS011;7352;50.866;4.366;2023-04-03T08:31:04;0.20;;;0.20;;
14530;SDS011;7352;50.866;4.366;2023-04-03T08:33:47;0.20;;;0.20;;
14530;SDS011;7352;50.866;4.366;2023-04-03T08:36:22;0.20;;;0.20;;
14530;SDS011;7352;50.866;4.366;2023-04-03T08:38:51;0.20;;;0.20;;
14530;SDS011;7352;50.866;4.366;2023-04-03T08:41:20;0.20;;;0.20;;
14530;SDS011;7352;50.866;4.366;2023-04-03T08:46:59;0.20;;;0.20;;
14530;SDS011;7352;50.866;4.366;2023-04-03T08:49:39;0.20;;;0.20;;
14530;SDS011;7352;50.866;4.366;2023-04-03T08:52:12;0.20;;;0.20;;
14530;SDS011;7352;50.866;4.366;2023-04-03T08:54:48;0.10;;;0.10;;
14530;SDS011;7352;50.866;4.366;2023-04-03T08:57:20;0.20;;;0.20;;
14530;SDS011;7352;50.866;4.366;2023-04-03T08:59:56;0.20;;;0.20;;
14530;SDS011;7352;50.866;4.366;2023-04-03T09:02:28;0.10;;;0.10;;
14530;SDS011;7352;50.866;4.366;2023-04-03T09:05:27;0.13;;;0.13;;
14530;SDS011;7352;50.866;4.366;2023-04-03T09:08:04;0.20;;;0.20;;
14530;SDS011;7352;50.866;4.366;2023-04-03T09:10:37;0.20;;;0.20;;
14530;SDS011;7352;50.866;4.366;2023-04-03T09:13:09;0.20;;;0.20;;
14530;SDS011;7352;50.866;4.366;2023-04-03T09:15:41;0.20;;;0.20;;
14530;SDS011;7352;50.866;4.366;2023-04-03T09:18:13;0.20;;;0.20;;
14530;SDS011;7352;50.866;4.366;2023-04-03T09:31:44;0.20;;;0.20;;
14530;SDS011;7352;50.866;4.366;2023-04-03T09:34:20;0.20;;;0.20;;
14530;SDS011;7352;50.866;4.366;2023-04-03T09:40:04;0.20;;;0.20;;
14530;SDS011;7352;50.866;4.366;2023-04-03T09:42:47;0.20;;;0.20;;
14530;SDS011;7352;50.866;4.366;2023-04-03T09:45:21;0.20;;;0.20;;
14530;SDS011;7352;50.866;4.366;2023-04-03T09:48:03;0.20;;;0.20;;
14530;SDS011;7352;50.866;4.366;2023-04-03T09:50:34;0.20;;;0.20;;
14530;SDS011;7352;50.866;4.366;2023-04-03T09:53:05;0.20;;;0.20;;
14530;SDS011;7352;50.866;4.366;2023-04-03T09:55:50;0.20;;;0.20;;
14530;SDS011;7352;50.866;4.366;2023-04-03T09:58:24;0.20;;;0.20;;
14530;SDS011;7352;50.866;4.366;2023-04-03T10:00:54;0.20;;;0.20;;
14530;SDS011;7352;50.866;4.366;2023-04-03T10:03:25;0.20;;;0.20;;
14530;SDS011;7352;50.866;4.366;2023-04-03T10:05:55;0.20;;;0.20;;
14530;SDS011;7352;50.866;4.366;2023-04-03T10:08:35;0.10;;;0.10;;
14530;SDS011;7352;50.866;4.366;2023-04-03T10:11:09;0.20;;;0.20;;
14530;SDS011;7352;50.866;4.366;2023-04-03T10:13:54;0.20;;;0.20;;
14530;SDS011;7352;50.866;4.366;2023-04-03T10:16:34;0.10;;;0.10;;
14530;SDS011;7352;50.866;4.366;2023-04-03T10:19:16;0.20;;;0.20;;
14530;SDS011;7352;50.866;4.366;2023-04-03T10:21:58;0.20;;;0.20;;
14530;SDS011;7352;50.866;4.366;2023-04-03T10:24:31;0.10;;;0.10;;
14530;SDS011;7352;50.866;4.366;2023-04-03T10:27:10;0.20;;;0.20;;
14530;SDS011;7352;50.866;4.366;2023-04-03T10:29:45;0.20;;;0.20;;
14530;SDS011;7352;50.866;4.366;2023-04-03T10:32:29;0.20;;;0.20;;
14530;SDS011;7352;50.866;4.366;2023-04-03T10:35:33;0.20;;;0.20;;
14530;SDS011;7352;50.866;4.366;2023-04-03T10:38:12;0.20;;;0.20;;
14530;SDS011;7352;50.866;4.366;2023-04-03T10:40:57;0.20;;;0.20;;
14530;SDS011;7352;50.866;4.366;2023-04-03T10:43:33;0.20;;;0.20;;
14530;SDS011;7352;50.866;4.366;2023-04-03T10:46:11;0.20;;;0.20;;
14530;SDS011;7352;50.866;4.366;2023-04-03T10:48:58;0.20;;;0.20;;
14530;SDS011;7352;50.866;4.366;2023-04-03T10:51:37;0.20;;;0.20;;
14530;SDS011;7352;50.866;4.366;2023-04-03T10:54:10;0.20;;;0.20;;
14530;SDS011;7352;50.866;4.366;2023-04-03T10:56:41;0.20;;;0.20;;
14530;SDS011;7352;50.866;4.366;2023-04-03T10:59:14;0.20;;;0.20;;
14530;SDS011;7352;50.866;4.366;2023-04-03T11:01:48;0.20;;;0.20;;
14530;SDS011;7352;50.866;4.366;2023-04-03T11:04:19;0.13;;;0.13;;
14530;SDS011;7352;50.866;4.366;2023-04-03T11:07:07;0.20;;;0.20;;
14530;SDS011;7352;50.866;4.366;2023-04-03T11:09:37;0.20;;;0.20;;
14530;SDS011;7352;50.866;4.366;2023-04-03T11:12:10;0.20;;;0.20;;
14530;SDS011;7352;50.866;4.366;2023-04-03T11:14:42;0.20;;;0.20;;
14530;SDS011;7352;50.866;4.366;2023-04-03T11:17:15;0.20;;;0.20;;
14530;SDS011;7352;50.866;4.366;2023-04-03T11:19:49;0.10;;;0.10;;
14530;SDS011;7352;50.866;4.366;2023-04-03T11:25:25;0.20;;;0.20;;
14530;SDS011;7352;50.866;4.366;2023-04-03T11:27:56;0.20;;;0.20;;
14530;SDS011;7352;50.866;4.366;2023-04-03T11:30:27;0.20;;;0.20;;
14530;SDS011;7352;50.866;4.366;2023-04-03T11:36:02;0.20;;;0.20;;
14530;SDS011;7352;50.866;4.366;2023-04-03T11:38:37;0.10;;;0.10;;
14530;SDS011;7352;50.866;4.366;2023-04-03T11:41:09;0.10;;;0.10;;
14530;SDS011;7352;50.866;4.366;2023-04-03T11:43:40;0.20;;;0.20;;
14530;SDS011;7352;50.866;4.366;2023-04-03T11:46:08;0.10;;;0.10;;
14530;SDS011;7352;50.866;4.366;2023-04-03T11:48:48;0.10;;;0.10;;
14530;SDS011;7352;50.866;4.366;2023-04-03T11:54:35;0.10;;;0.10;;
14530;SDS011;7352;50.866;4.366;2023-04-03T12:06:48;0.10;;;0.10;;
14530;SDS011;7352;50.866;4.366;2023-04-03T12:12:35;0.10;;;0.10;;
14530;SDS011;7352;50.866;4.366;2023-04-03T12:15:20;0.20;;;0.20;;
14530;SDS011;7352;50.866;4.366;2023-04-03T12:17:50;0.20;;;0.20;;
14530;SDS011;7352;50.866;4.366;2023-04-03T12:23:30;0.17;;;0.17;;
14530;SDS011;7352;50.866;4.366;2023-04-03T12:28:47;0.17;;;0.17;;
14530;SDS011;7352;50.866;4.366;2023-04-03T12:31:22;0.10;;;0.10;;
14530;SDS011;7352;50.866;4.366;2023-04-03T12:34:04;0.10;;;0.10;;
14530;SDS011;7352;50.866;4.366;2023-04-03T12:36:43;0.10;;;0.10;;
14530;SDS011;7352;50.866;4.366;2023-04-03T12:39:20;0.20;;;0.20;;
14530;SDS011;7352;50.866;4.366;2023-04-03T12:42:14;0.10;;;0.10;;
14530;SDS011;7352;50.866;4.366;2023-04-03T12:44:55;0.20;;;0.20;;
14530;SDS011;7352;50.866;4.366;2023-04-03T12:47:33;0.20;;;0.20;;
14530;SDS011;7352;50.866;4.366;2023-04-03T12:50:03;0.20;;;0.20;;
14530;SDS011;7352;50.866;4.366;2023-04-03T12:52:44;0.13;;;0.13;;
14530;SDS011;7352;50.866;4.366;2023-04-03T12:55:15;0.10;;;0.10;;
14530;SDS011;7352;50.866;4.366;2023-04-03T12:57:44;0.20;;;0.20;;
14530;SDS011;7352;50.866;4.366;2023-04-03T13:00:29;0.20;;;0.20;;
14530;SDS011;7352;50.866;4.366;2023-04-03T13:03:00;0.20;;;0.20;;
14530;SDS011;7352;50.866;4.366;2023-04-03T13:05:31;0.10;;;0.10;;
14530;SDS011;7352;50.866;4.366;2023-04-03T13:08:00;0.10;;;0.10;;
14530;SDS011;7352;50.866;4.366;2023-04-03T13:10:30;0.20;;;0.20;;
14530;SDS011;7352;50.866;4.366;2023-04-03T13:12:58;0.10;;;0.10;;
14530;SDS011;7352;50.866;4.366;2023-04-03T13:15:41;0.13;;;0.13;;
14530;SDS011;7352;50.866;4.366;2023-04-03T13:20:57;0.10;;;0.10;;
14530;SDS011;7352;50.866;4.366;2023-04-03T13:23:29;0.17;;;0.17;;
14530;SDS011;7352;50.866;4.366;2023-04-03T13:25:57;0.10;;;0.10;;
14530;SDS011;7352;50.866;4.366;2023-04-03T13:28:29;0.10;;;0.10;;
14530;SDS011;7352;50.866;4.366;2023-04-03T13:31:03;0.10;;;0.10;;
14530;SDS011;7352;50.866;4.366;2023-04-03T13:33:37;0.10;;;0.10;;
14530;SDS011;7352;50.866;4.366;2023-04-03T13:36:05;0.10;;;0.10;;
14530;SDS011;7352;50.866;4.366;2023-04-03T13:38:33;0.10;;;0.10;;
14530;SDS011;7352;50.866;4.366;2023-04-03T13:41:02;0.17;;;0.17;;
14530;SDS011;7352;50.866;4.366;2023-04-03T13:43:32;0.10;;;0.10;;
14530;SDS011;7352;50.866;4.366;2023-04-03T13:46:20;0.13;;;0.13;;
14530;SDS011;7352;50.866;4.366;2023-04-03T13:48:54;0.10;;;0.10;;
14530;SDS011;7352;50.866;4.366;2023-04-03T13:51:23;0.10;;;0.10;;
14530;SDS011;7352;50.866;4.366;2023-04-03T13:53:52;0.10;;;0.10;;
14530;SDS011;7352;50.866;4.366;2023-04-03T13:56:27;0.13;;;0.13;;
14530;SDS011;7352;50.866;4.366;2023-04-03T13:59:03;0.10;;;0.10;;
14530;SDS011;7352;50.866;4.366;2023-04-03T14:01:33;0.10;;;0.10;;
14530;SDS011;7352;50.866;4.366;2023-04-03T14:04:14;0.10;;;0.10;;
14530;SDS011;7352;50.866;4.366;2023-04-03T14:06:45;0.10;;;0.10;;
14530;SDS011;7352;50.866;4.366;2023-04-03T14:09:15;0.20;;;0.20;;
14530;SDS011;7352;50.866;4.366;2023-04-03T14:11:43;0.10;;;0.10;;
14530;SDS011;7352;50.866;4.366;2023-04-03T14:14:14;0.10;;;0.10;;
14530;SDS011;7352;50.866;4.366;2023-04-03T14:16:45;0.10;;;0.10;;
14530;SDS011;7352;50.866;4.366;2023-04-03T14:19:21;0.10;;;0.10;;
14530;SDS011;7352;50.866;4.366;2023-04-03T14:21:49;0.10;;;0.10;;
14530;SDS011;7352;50.866;4.366;2023-04-03T14:24:20;0.20;;;0.20;;
14530;SDS011;7352;50.866;4.366;2023-04-03T14:26:48;0.10;;;0.10;;
14530;SDS011;7352;50.866;4.366;2023-04-03T14:29:17;0.10;;;0.10;;
14530;SDS011;7352;50.866;4.366;2023-04-03T14:31:46;0.10;;;0.10;;
14530;SDS011;7352;50.866;4.366;2023-04-03T14:34:16;0.10;;;0.10;;
14530;SDS011;7352;50.866;4.366;2023-04-03T14:36:45;0.10;;;0.10;;
14530;SDS011;7352;50.866;4.366;2023-04-03T14:39:17;0.10;;;0.10;;
14530;SDS011;7352;50.866;4.366;2023-04-03T14:41:45;0.10;;;0.10;;
14530;SDS011;7352;50.866;4.366;2023-04-03T14:44:15;0.10;;;0.10;;
14530;SDS011;7352;50.866;4.366;2023-04-03T14:46:42;0.10;;;0.10;;
14530;SDS011;7352;50.866;4.366;2023-04-03T14:49:12;0.10;;;0.10;;
14530;SDS011;7352;50.866;4.366;2023-04-03T14:51:41;0.10;;;0.10;;
14530;SDS011;7352;50.866;4.366;2023-04-03T14:54:16;0.10;;;0.10;;
14530;SDS011;7352;50.866;4.366;2023-04-03T14:56:50;0.10;;;0.10;;
14530;SDS011;7352;50.866;4.366;2023-04-03T14:59:17;0.10;;;0.10;;
14530;SDS011;7352;50.866;4.366;2023-04-03T15:01:46;0.10;;;0.10;;
14530;SDS011;7352;50.866;4.366;2023-04-03T15:04:14;0.10;;;0.10;;
14530;SDS011;7352;50.866;4.366;2023-04-03T15:06:42;0.10;;;0.10;;
14530;SDS011;7352;50.866;4.366;2023-04-03T15:09:14;0.10;;;0.10;;
14530;SDS011;7352;50.866;4.366;2023-04-03T15:11:46;0.10;;;0.10;;
14530;SDS011;7352;50.866;4.366;2023-04-03T15:14:14;0.10;;;0.10;;
14530;SDS011;7352;50.866;4.366;2023-04-03T15:16:41;0.10;;;0.10;;
14530;SDS011;7352;50.866;4.366;2023-04-03T15:19:11;0.10;;;0.10;;
14530;SDS011;7352;50.866;4.366;2023-04-03T15:21:40;0.10;;;0.10;;
14530;SDS011;7352;50.866;4.366;2023-04-03T15:24:08;0.10;;;0.10;;
14530;SDS011;7352;50.866;4.366;2023-04-03T15:26:38;0.10;;;0.10;;
14530;SDS011;7352;50.866;4.366;2023-04-03T15:29:06;0.10;;;0.10;;
14530;SDS011;7352;50.866;4.366;2023-04-03T15:31:33;0.10;;;0.10;;
14530;SDS011;7352;50.866;4.366;2023-04-03T15:34:00;0.20;;;0.20;;
14530;SDS011;7352;50.866;4.366;2023-04-03T15:36:29;0.10;;;0.10;;
14530;SDS011;7352;50.866;4.366;2023-04-03T15:38:58;0.10;;;0.10;;
14530;SDS011;7352;50.866;4.366;2023-04-03T15:41:25;0.10;;;0.10;;
14530;SDS011;7352;50.866;4.366;2023-04-03T15:43:54;0.10;;;0.10;;
14530;SDS011;7352;50.866;4.366;2023-04-03T15:46:24;0.10;;;0.10;;
14530;SDS011;7352;50.866;4.366;2023-04-03T15:48:52;0.10;;;0.10;;
14530;SDS011;7352;50.866;4.366;2023-04-03T15:51:19;0.10;;;0.10;;
14530;SDS011;7352;50.866;4.366;2023-04-03T15:53:47;0.10;;;0.10;;
14530;SDS011;7352;50.866;4.366;2023-04-03T15:56:14;0.10;;;0.10;;
14530;SDS011;7352;50.866;4.366;2023-04-03T15:58:41;0.10;;;0.10;;
14530;SDS011;7352;50.866;4.366;2023-04-03T16:01:10;0.10;;;0.10;;
14530;SDS011;7352;50.866;4.366;2023-04-03T16:03:41;0.10;;;0.10;;
14530;SDS011;7352;50.866;4.366;2023-04-03T16:06:13;0.10;;;0.10;;
14530;SDS011;7352;50.866;4.366;2023-04-03T16:09:02;0.10;;;0.10;;
14530;SDS011;7352;50.866;4.366;2023-04-03T16:14:22;0.10;;;0.10;;
14530;SDS011;7352;50.866;4.366;2023-04-03T16:16:51;0.03;;;0.03;;
14530;SDS011;7352;50.866;4.366;2023-04-03T16:22:06;0.07;;;0.07;;
14530;SDS011;7352;50.866;4.366;2023-04-03T16:24:42;0.10;;;0.10;;
14530;SDS011;7352;50.866;4.366;2023-04-03T16:27:15;0.10;;;0.10;;
14530;SDS011;7352;50.866;4.366;2023-04-03T16:32:18;0.10;;;0.10;;
14530;SDS011;7352;50.866;4.366;2023-04-03T16:34:48;0.10;;;0.10;;
14530;SDS011;7352;50.866;4.366;2023-04-03T16:37:16;0.10;;;0.10;;
14530;SDS011;7352;50.866;4.366;2023-04-03T16:39:47;0.10;;;0.10;;
14530;SDS011;7352;50.866;4.366;2023-04-03T16:42:14;0.10;;;0.10;;
14530;SDS011;7352;50.866;4.366;2023-04-03T16:44:42;0.10;;;0.10;;
14530;SDS011;7352;50.866;4.366;2023-04-03T16:47:09;0.10;;;0.10;;
14530;SDS011;7352;50.866;4.366;2023-04-03T16:49:42;0.10;;;0.10;;
14530;SDS011;7352;50.866;4.366;2023-04-03T16:52:11;0.10;;;0.10;;
14530;SDS011;7352;50.866;4.366;2023-04-03T16:54:38;0.10;;;0.10;;
14530;SDS011;7352;50.866;4.366;2023-04-03T16:57:05;0.10;;;0.10;;
14530;SDS011;7352;50.866;4.366;2023-04-03T16:59:33;0.10;;;0.10;;
14530;SDS011;7352;50.866;4.366;2023-04-03T17:02:02;0.10;;;0.10;;
14530;SDS011;7352;50.866;4.366;2023-04-03T17:04:29;0.10;;;0.10;;